Manchester, Pennsylvania
Current Conditions -  °F | °C
As of 8:56 AM on Sunday 25 Jan 2015 (Local Time) from KMDT Reporting Station
Overcast Overcast  
Wind Chill: 29°   Ceiling: 3400
Heat Index: 37°   Visibility: 10mi
Dew Point: 29°   Wind: 13mph
Humidity: 73%   Direction: 220°SW
Pressure: 29.78"   Gusts: NA
Location:  40.06°N, 76.72°W
Report Text: KMDT 251356Z 22011KT 10SM BKN034 OVC040 03/M02 A2978 RMK AO2 SLP087 T00281017
Loading
Personal Weather Stations






























Interactive Weather Map New forecast layout! Learn more

10-Day Weather Forecast

Advertisements
Track Severe Weather on mobile